Time;durP1;ratioP1;P1;durP2;ratioP2;P2;SDS_P1;SDS_P2;PMS_P1;PMS_P2;Temp;Humidity;BMP_temperature;BMP_pressure;BME280_temperature;BME280_humidity;BME280_pressure;Samples;Min_cycle;Max_cycle;Signal;HPM_P1;HPM_P2
2022/03/28 00:01:18;;;;;;;11.97;6.17;;;;;;;7.74;77.42;102736.59;5053298;28;20028;-35
2022/03/28 00:03:44;;;;;;;13.95;6.68;;;;;;;7.79;78.02;102752.25;5053527;28;20095;-35
2022/03/28 00:06:09;;;;;;;16.38;7.75;;;;;;;7.72;79.07;102746.69;5053276;28;20091;-35
2022/03/28 00:08:36;;;;;;;16.80;6.87;;;;;;;7.66;78.25;102741.97;5053078;28;20104;-35
2022/03/28 00:11:01;;;;;;;;;;;;;;;7.80;76.21;102732.38;5052959;28;20052;-35
2022/03/28 00:13:27;;;;;;;16.77;6.82;;;;;;;7.62;77.81;102735.25;5053171;28;20353;-35
2022/03/28 00:15:52;;;;;;;12.40;6.72;;;;;;;7.54;78.23;102727.13;5053104;28;20079;-35
2022/03/28 00:18:17;;;;;;;12.20;6.30;;;;;;;7.60;78.14;102729.16;5053683;28;20033;-35
2022/03/28 00:20:46;;;;;;;11.83;6.63;;;;;;;7.54;77.95;102732.53;5053559;28;20036;-35
2022/03/28 00:23:12;;;;;;;12.35;6.63;;;;;;;7.40;78.79;102709.78;5052932;28;20396;-35
2022/03/28 00:25:37;;;;;;;15.65;7.00;;;;;;;7.40;78.00;102716.00;5052677;28;20040;-35
2022/03/28 00:28:03;;;;;;;14.00;7.10;;;;;;;7.40;78.70;102710.63;5053130;28;20388;-35
2022/03/28 00:30:29;;;;;;;;;;;;;;;7.58;75.73;102706.97;5052297;28;20384;-35
2022/03/28 00:32:54;;;;;;;12.27;6.47;;;;;;;7.29;78.42;102694.78;5052704;28;19920;-36
2022/03/28 00:35:20;;;;;;;15.27;7.10;;;;;;;7.31;79.21;102700.81;5053029;28;20736;-35
2022/03/28 00:37:45;;;;;;;11.77;6.45;;;;;;;7.19;79.20;102678.78;5052709;28;20078;-35
2022/03/28 00:40:11;;;;;;;9.63;6.27;;;;;;;7.27;78.71;102677.97;5052739;28;20025;-35
2022/03/28 00:42:37;;;;;;;13.95;5.82;;;;;;;7.10;78.69;102671.69;5052677;28;20040;-35
2022/03/28 00:45:07;;;;;;;18.33;6.55;;;;;;;7.17;79.86;102693.38;5053278;28;20045;-35
2022/03/28 00:47:32;;;;;;;9.20;6.40;;;;;;;7.11;79.66;102688.66;5052660;28;20043;-35
2022/03/28 00:49:58;;;;;;;10.65;6.05;;;;;;;7.11;79.38;102685.97;5052528;28;20033;-35
2022/03/28 00:52:24;;;;;;;16.00;7.20;;;;;;;7.10;79.68;102685.13;5052938;28;20473;-35
2022/03/28 00:54:49;;;;;;;11.48;6.28;;;;;;;7.15;79.48;102685.47;5052898;28;20048;-35
2022/03/28 00:57:15;;;;;;;16.33;7.28;;;;;;;7.04;79.93;102680.41;5051547;28;20070;-35
2022/03/28 00:59:40;;;;;;;14.27;7.47;;;;;;;6.96;80.47;102683.06;5052997;28;20033;-35
2022/03/28 01:02:06;;;;;;;14.02;7.32;;;;;;;6.91;80.02;102672.78;5052584;28;20069;-35
2022/03/28 01:04:31;;;;;;;19.60;7.70;;;;;;;6.94;80.36;102680.53;5053505;28;20048;-35
2022/03/28 01:06:57;;;;;;;15.63;6.90;;;;;;;6.80;80.85;102667.72;5053245;28;20028;-35
2022/03/28 01:09:23;;;;;;;14.00;6.88;;;;;;;6.85;80.27;102670.75;5052505;28;20025;-35
2022/03/28 01:11:49;;;;;;;13.33;6.37;;;;;;;6.83;80.62;102667.41;5052976;28;20029;-35
2022/03/28 01:14:16;;;;;;;14.40;6.45;;;;;;;6.81;80.93;102660.47;5052147;28;20087;-36
2022/03/28 01:19:25;;;;;;;12.38;6.50;;;;;;;6.74;81.23;102660.31;5052516;28;20044;-35
2022/03/28 01:21:51;;;;;;;12.47;6.27;;;;;;;6.70;79.84;102640.09;5052386;28;20037;-36
2022/03/28 01:24:17;;;;;;;;;;;;;;;6.96;78.56;102656.16;5055097;28;20095;-36
2022/03/28 01:26:43;;;;;;;13.93;5.68;;;;;;;6.87;81.43;102646.38;5055888;28;20356;-36
2022/03/28 01:29:08;;;;;;;;;;;;;;;6.99;78.73;102652.31;5056712;28;20035;-36
2022/03/28 01:31:38;;;;;;;12.82;5.70;;;;;;;6.83;80.91;102628.88;5056035;28;20280;-36
2022/03/28 01:34:04;;;;;;;14.38;6.40;;;;;;;6.84;82.27;102642.19;5056220;28;20477;-35
2022/03/28 01:36:29;;;;;;;12.47;6.00;;;;;;;6.82;82.70;102638.81;5056543;28;20108;-36
2022/03/28 01:38:55;;;;;;;16.02;6.68;;;;;;;6.77;82.25;102640.28;5055098;28;20095;-35
2022/03/28 01:41:20;;;;;;;13.90;6.50;;;;;;;6.76;82.66;102634.06;5056244;28;20079;-40
2022/03/28 01:43:45;;;;;;;12.80;6.37;;;;;;;6.79;82.52;102627.56;5055869;28;20441;-36
2022/03/28 01:46:11;;;;;;;20.17;7.03;;;;;;;6.82;82.53;102624.50;5056102;28;20393;-36
2022/03/28 01:48:36;;;;;;;13.20;6.23;;;;;;;6.73;82.49;102631.69;5055892;28;20071;-36
2022/03/28 01:51:01;;;;;;;15.73;6.88;;;;;;;6.69;82.57;102623.13;5055564;28;20029;-35
2022/03/28 01:53:27;;;;;;;15.50;6.97;;;;;;;6.71;83.19;102612.22;5054441;28;20048;-35
2022/03/28 01:55:52;;;;;;;17.30;7.03;;;;;;;6.73;83.21;102620.94;5055900;28;20044;-36
2022/03/28 01:58:17;;;;;;;20.20;7.37;;;;;;;6.53;82.72;102604.22;5055471;28;20024;-36
2022/03/28 02:00:43;;;;;;;13.00;6.87;;;;;;;6.59;82.31;102609.00;5056060;28;20452;-35
2022/03/28 02:03:09;;;;;;;12.57;6.03;;;;;;;6.69;82.33;102627.69;5055516;28;20126;-35
2022/03/28 02:05:34;;;;;;;21.00;7.55;;;;;;;6.70;83.09;102622.13;5055929;28;20041;-36
2022/03/28 02:07:59;;;;;;;12.13;5.67;;;;;;;6.71;82.18;102621.13;5056032;28;20035;-35
2022/03/28 02:10:25;;;;;;;19.67;6.40;;;;;;;6.53;83.15;102606.09;5055898;28;20025;-35
2022/03/28 02:12:52;;;;;;;16.77;6.15;;;;;;;6.69;82.62;102619.63;5054088;28;20036;-35
2022/03/28 02:15:18;;;;;;;15.93;6.07;;;;;;;6.68;83.76;102617.91;5055147;28;20064;-35
2022/03/28 02:17:44;;;;;;;16.30;6.60;;;;;;;6.64;83.29;102616.56;5055140;28;20032;-36
2022/03/28 02:20:11;;;;;;;20.13;6.47;;;;;;;6.54;83.29;102605.06;5055403;28;20032;-36
2022/03/28 02:22:38;;;;;;;19.45;7.00;;;;;;;6.52;85.12;102610.63;5054933;28;20495;-36
2022/03/28 02:25:05;;;;;;;19.25;7.05;;;;;;;6.50;84.20;102611.81;5055118;28;20104;-35
2022/03/28 02:27:30;;;;;;;15.57;6.47;;;;;;;6.41;83.70;102598.31;5054912;28;20079;-35
2022/03/28 02:29:56;;;;;;;15.97;6.20;;;;;;;6.44;84.58;102610.56;5054985;28;20033;-36
2022/03/28 02:32:21;;;;;;;22.47;7.43;;;;;;;6.45;84.65;102610.44;5054876;28;20101;-35
2022/03/28 02:34:47;;;;;;;16.45;6.07;;;;;;;6.48;84.60;102605.72;5054704;28;20083;-35
2022/03/28 02:37:12;;;;;;;16.70;6.50;;;;;;;6.49;83.83;102605.59;5054822;28;20025;-35
2022/03/28 02:39:37;;;;;;;13.53;6.00;;;;;;;6.40;84.97;102596.63;5055117;28;20103;-35
2022/03/28 02:42:04;;;;;;;19.93;6.50;;;;;;;6.34;85.39;102591.88;5054685;28;20032;-35
2022/03/28 02:44:29;;;;;;;16.25;6.22;;;;;;;6.31;85.25;102594.91;5054907;28;20025;-35
2022/03/28 02:46:55;;;;;;;15.80;6.18;;;;;;;6.31;84.71;102594.91;5054406;28;20469;-35
2022/03/28 02:49:20;;;;;;;14.73;5.87;;;;;;;6.30;85.75;102587.84;5054636;28;20436;-35
2022/03/28 02:51:46;;;;;;;14.03;5.53;;;;;;;6.24;85.06;102588.47;5054761;28;20057;-36
2022/03/28 02:54:12;;;;;;;18.45;6.05;;;;;;;6.24;85.66;102583.09;5054508;28;20036;-37
2022/03/28 02:56:37;;;;;;;15.68;5.78;;;;;;;6.01;85.50;102545.22;5055219;28;20465;-35
2022/03/28 02:59:03;;;;;;;14.95;6.47;;;;;;;6.17;85.13;102576.69;5054926;28;20082;-35
2022/03/28 03:01:29;;;;;;;13.60;5.85;;;;;;;6.14;85.64;102572.47;5054409;28;20106;-35
2022/03/28 03:03:54;;;;;;;12.63;5.93;;;;;;;6.10;85.72;102563.06;5054269;28;20378;-35
2022/03/28 03:06:19;;;;;;;14.27;5.47;;;;;;;6.20;85.97;102565.66;5054991;28;20083;-35
2022/03/28 03:08:45;;;;;;;17.83;5.97;;;;;;;6.16;86.29;102564.28;5054464;28;20029;-35
2022/03/28 03:11:10;;;;;;;13.13;5.47;;;;;;;6.14;85.24;102566.25;5054503;28;20104;-35
2022/03/28 03:13:36;;;;;;;16.03;6.33;;;;;;;6.13;85.82;102564.59;5054122;28;20116;-35
2022/03/28 03:16:03;;;;;;;16.92;6.32;;;;;;;6.09;85.78;102552.47;5054265;28;20389;-35
2022/03/28 03:18:29;;;;;;;19.23;6.57;;;;;;;6.07;86.26;102559.84;5054544;28;20033;-35
2022/03/28 03:20:54;;;;;;;15.77;6.60;;;;;;;6.09;86.40;102558.69;5054855;28;20086;-35
2022/03/28 03:23:19;;;;;;;14.23;5.43;;;;;;;6.00;85.28;102548.88;5054016;28;20114;-35
2022/03/28 03:25:45;;;;;;;19.90;7.17;;;;;;;6.06;86.80;102555.50;5054138;28;20025;-35
2022/03/28 03:28:10;;;;;;;14.93;5.60;;;;;;;6.03;86.94;102563.84;5054141;28;20033;-35
2022/03/28 03:30:35;;;;;;;16.67;6.50;;;;;;;5.93;87.57;102558.59;5053846;28;20523;-35
2022/03/28 03:33:01;;;;;;;14.87;5.93;;;;;;;5.89;86.25;102551.81;5054343;28;20041;-35
2022/03/28 03:35:27;;;;;;;15.73;5.75;;;;;;;5.82;86.49;102554.31;5053655;28;20501;-35
2022/03/28 03:37:52;;;;;;;17.98;5.97;;;;;;;5.71;86.86;102537.59;5053565;28;20025;-35
2022/03/28 03:40:18;;;;;;;17.23;5.80;;;;;;;5.84;87.08;102551.44;5053558;28;20040;-35
2022/03/28 03:42:43;;;;;;;14.55;5.88;;;;;;;5.84;86.58;102554.97;5053476;28;20282;-35
2022/03/28 03:45:09;;;;;;;11.33;5.47;;;;;;;5.87;86.75;102545.78;5053395;28;20438;-35
2022/03/28 03:47:36;;;;;;;14.27;5.45;;;;;;;5.67;87.17;102537.94;5053289;28;20355;-35
2022/03/28 03:50:01;;;;;;;;;;;;;;;5.89;84.87;102539.22;5054203;28;20118;-35
2022/03/28 03:52:26;;;;;;;16.00;5.18;;;;;;;5.67;86.71;102527.19;5053236;28;19999;-35
2022/03/28 03:54:52;;;;;;;13.50;5.17;;;;;;;5.62;87.25;102523.31;5053562;28;20045;-35
2022/03/28 03:57:17;;;;;;;15.80;5.23;;;;;;;5.73;88.11;102536.47;5053451;28;20025;-35
2022/03/28 03:59:42;;;;;;;15.67;6.03;;;;;;;5.66;88.53;102532.69;5053400;28;20025;-36
2022/03/28 04:02:08;;;;;;;17.83;6.40;;;;;;;5.60;89.41;102527.97;5053316;28;20033;-35
2022/03/28 04:04:34;;;;;;;14.82;5.60;;;;;;;5.54;89.43;102517.88;5057005;28;20090;-35
2022/03/28 04:06:59;;;;;;;14.57;5.53;;;;;;;5.52;89.00;102525.25;5052681;28;20040;-35
2022/03/28 04:09:25;;;;;;;14.33;5.43;;;;;;;5.49;89.29;102520.19;5053364;28;20111;-35
2022/03/28 04:11:50;;;;;;;13.87;5.60;;;;;;;5.53;88.90;102516.19;5052966;28;20032;-35
2022/03/28 04:14:16;;;;;;;16.70;6.18;;;;;;;5.42;88.54;102512.78;5053234;28;20036;-35
2022/03/28 04:16:42;;;;;;;14.90;5.40;;;;;;;5.50;88.98;102514.66;5052745;28;20029;-35
2022/03/28 04:19:07;;;;;;;14.48;5.25;;;;;;;5.55;88.78;102519.56;5051778;28;20366;-35
2022/03/28 04:21:33;;;;;;;15.47;5.83;;;;;;;5.45;88.99;102508.06;5052789;28;20060;-35
2022/03/28 04:23:58;;;;;;;15.80;5.50;;;;;;;5.52;89.62;102511.84;5053120;28;20111;-35
2022/03/28 04:26:23;;;;;;;18.90;6.33;;;;;;;5.41;88.44;102508.38;5052853;28;20065;-35
2022/03/28 04:28:49;;;;;;;17.37;5.77;;;;;;;5.30;88.77;102497.91;5052829;28;20032;-35
2022/03/28 04:31:15;;;;;;;17.70;6.17;;;;;;;5.18;88.23;102488.44;5053493;28;20025;-35
2022/03/28 04:33:40;;;;;;;;;;;;;;;5.48;87.16;102513.97;5053496;28;20040;-35
2022/03/28 04:36:06;;;;;;;22.00;6.30;;;;;;;5.36;88.53;102509.84;5053156;28;20357;-35
2022/03/28 04:38:31;;;;;;;15.37;5.53;;;;;;;5.24;88.65;102500.38;5052945;28;20458;-35
2022/03/28 04:40:57;;;;;;;19.90;5.72;;;;;;;5.28;88.87;102510.66;5053116;28;20025;-35
2022/03/28 04:43:22;;;;;;;14.27;5.15;;;;;;;5.25;88.67;102510.09;5052712;28;20120;-35
2022/03/28 04:45:48;;;;;;;13.87;5.67;;;;;;;5.23;89.33;102512.94;5052964;28;20466;-34
2022/03/28 04:48:14;;;;;;;17.35;5.65;;;;;;;5.22;88.89;102518.44;5052481;28;20118;-35
2022/03/28 04:50:39;;;;;;;15.90;5.70;;;;;;;4.97;89.39;102480.69;5052658;28;20111;-35
2022/03/28 04:53:05;;;;;;;16.27;5.50;;;;;;;5.25;89.79;102532.41;5052255;28;20280;-35
2022/03/28 04:55:30;;;;;;;12.05;5.18;;;;;;;5.11;88.90;102522.22;5053401;28;20025;-35
2022/03/28 04:57:56;;;;;;;13.05;5.30;;;;;;;5.09;90.33;102521.53;5052669;28;20462;-35
2022/03/28 05:00:21;;;;;;;18.40;5.20;;;;;;;5.10;89.92;102523.22;5057169;28;20091;-35
2022/03/28 05:02:47;;;;;;;22.13;6.30;;;;;;;5.06;90.88;102529.88;5056296;28;20083;-35
2022/03/28 05:05:14;;;;;;;15.85;5.68;;;;;;;5.01;91.17;102498.16;5057186;28;20045;-35
2022/03/28 05:07:39;;;;;;;;;;;;;;;5.20;88.76;102507.03;5057120;28;20039;-35
2022/03/28 05:10:05;;;;;;;13.63;5.33;;;;;;;5.07;89.40;102515.47;5056345;28;20369;-35
2022/03/28 05:12:32;;;;;;;17.35;5.65;;;;;;;5.02;90.77;102510.56;5056229;28;20021;-35
2022/03/28 05:14:57;;;;;;;;;;;;;;;5.14;88.29;102504.00;5057586;28;20029;-35
2022/03/28 05:17:24;;;;;;;12.47;4.93;;;;;;;5.04;nan;102513.97;5056246;28;20276;-35
2022/03/28 05:19:50;;;;;;;17.92;6.32;;;;;;;5.00;90.22;102522.47;5056298;28;20256;-35
2022/03/28 05:22:15;;;;;;;;;;;;;;;5.11;88.25;102506.97;5056560;28;20081;-36
2022/03/28 05:24:41;;;;;;;13.27;5.17;;;;;;;4.87;90.14;102496.03;5055096;28;20357;-35
2022/03/28 05:27:06;;;;;;;15.70;5.97;;;;;;;4.94;90.37;102513.19;5056031;28;20267;-35
2022/03/28 05:29:32;;;;;;;16.00;5.40;;;;;;;4.88;90.10;102509.28;5056015;28;20052;-35
2022/03/28 05:31:57;;;;;;;13.70;5.28;;;;;;;4.89;90.38;102510.13;5056111;28;20118;-35
2022/03/28 05:34:23;;;;;;;17.47;5.53;;;;;;;4.87;90.55;102507.59;5056275;28;20029;-35
2022/03/28 05:36:48;;;;;;;13.63;5.87;;;;;;;4.95;90.60;102498.78;5056477;28;20458;-35
2022/03/28 05:39:14;;;;;;;14.40;4.78;;;;;;;4.86;90.38;102505.91;5055885;28;20095;-35
2022/03/28 05:41:40;;;;;;;18.45;6.22;;;;;;;4.88;90.81;102509.28;5056612;28;20363;-35
2022/03/28 05:44:06;;;;;;;15.88;6.22;;;;;;;4.85;91.01;102514.94;5055652;28;20029;-35
2022/03/28 05:46:31;;;;;;;15.90;6.05;;;;;;;4.82;91.21;102504.53;5055341;28;20033;-35
2022/03/28 05:48:56;;;;;;;15.80;5.93;;;;;;;4.73;88.88;102497.41;5055754;28;20024;-35
2022/03/28 05:51:22;;;;;;;15.77;5.30;;;;;;;4.85;90.17;102508.75;5055617;28;20322;-35
2022/03/28 05:53:47;;;;;;;21.10;5.40;;;;;;;4.85;90.85;102509.59;5055524;28;20116;-35
2022/03/28 05:56:13;;;;;;;20.67;6.90;;;;;;;4.93;92.19;102505.28;5055463;28;20021;-35
2022/03/28 05:58:38;;;;;;;18.27;7.07;;;;;;;4.95;90.92;102509.50;5055132;28;20272;-35
2022/03/28 06:01:04;;;;;;;16.77;6.13;;;;;;;4.92;90.42;102488.38;5055368;28;20041;-35
2022/03/28 06:03:29;;;;;;;15.63;5.67;;;;;;;5.02;90.61;102494.47;5055311;28;20094;-35
2022/03/28 06:05:55;;;;;;;23.60;5.90;;;;;;;5.05;92.61;102494.19;5055001;28;20064;-35
2022/03/28 06:08:21;;;;;;;19.38;6.22;;;;;;;5.09;92.04;102489.38;5055341;28;20040;-35
2022/03/28 06:10:46;;;;;;;14.35;5.65;;;;;;;5.21;92.03;102487.28;5054275;28;20465;-35
2022/03/28 06:13:13;;;;;;;17.13;6.10;;;;;;;5.17;91.60;102481.38;5054682;28;20025;-35
2022/03/28 06:15:38;;;;;;;14.13;5.18;;;;;;;5.20;89.46;102475.69;5054970;28;20028;-35
2022/03/28 06:18:05;;;;;;;19.40;6.60;;;;;;;5.30;92.28;102492.53;5055034;28;20168;-35
2022/03/28 06:20:34;;;;;;;12.88;5.70;;;;;;;5.28;92.44;102489.19;5054914;28;20390;-35
2022/03/28 06:23:00;;;;;;;17.55;6.75;;;;;;;5.37;93.25;102488.25;5054807;28;20420;-35
2022/03/28 06:25:25;;;;;;;21.52;7.00;;;;;;;5.43;92.92;102493.00;5054804;28;20036;-35
2022/03/28 06:27:51;;;;;;;17.55;5.07;;;;;;;5.63;92.34;102482.88;5054468;28;20079;-35
2022/03/28 06:30:17;;;;;;;14.77;5.18;;;;;;;5.68;92.14;102471.66;5054130;28;20025;-35
2022/03/28 06:32:42;;;;;;;21.50;6.33;;;;;;;5.82;91.45;102481.81;5054307;28;20031;-35
2022/03/28 06:35:08;;;;;;;19.50;6.20;;;;;;;5.77;92.58;102473.41;5055122;28;20342;-35
2022/03/28 06:37:34;;;;;;;18.00;5.60;;;;;;;5.78;91.09;102472.41;5055026;28;20025;-35
2022/03/28 06:40:03;;;;;;;15.52;5.05;;;;;;;5.86;91.21;102475.13;5054816;28;20440;-35
2022/03/28 06:42:29;;;;;;;17.15;5.72;;;;;;;5.94;92.38;102477.03;5054588;28;20468;-35
2022/03/28 06:44:54;;;;;;;14.88;5.43;;;;;;;5.82;92.03;102448.78;5054916;28;20037;-35
2022/03/28 06:47:20;;;;;;;16.97;6.57;;;;;;;6.01;91.98;102469.19;5054279;28;20025;-35
2022/03/28 06:49:45;;;;;;;19.30;7.30;;;;;;;6.14;91.47;102485.69;5055117;28;20024;-35
2022/03/28 06:52:11;;;;;;;19.67;7.32;;;;;;;6.17;92.01;102485.38;5054476;28;20064;-35
2022/03/28 06:54:36;;;;;;;13.77;5.60;;;;;;;6.16;92.52;102467.56;5054316;28;20116;-35
2022/03/28 06:57:04;;;;;;;20.37;7.13;;;;;;;6.25;91.85;102482.72;5054911;28;20100;-35
2022/03/28 06:59:30;;;;;;;16.25;6.05;;;;;;;6.19;91.93;102473.44;5054687;28;20040;-35
2022/03/28 07:01:57;;;;;;;18.90;6.93;;;;;;;6.19;92.13;102480.66;5052834;28;20045;-35
2022/03/28 07:04:23;;;;;;;17.77;6.68;;;;;;;6.21;92.34;102469.78;5053886;28;20107;-35
2022/03/28 07:06:49;;;;;;;20.65;7.13;;;;;;;6.30;92.97;102480.38;5054341;28;20076;-35
2022/03/28 07:09:14;;;;;;;;;;;;;;;6.48;91.33;102471.34;5054474;28;20389;-35
2022/03/28 07:11:40;;;;;;;15.82;6.28;;;;;;;6.49;92.16;102478.41;5054027;28;19913;-35
2022/03/28 07:14:05;;;;;;;18.07;7.17;;;;;;;6.49;90.53;102462.28;5053686;28;20046;-35
2022/03/28 07:16:31;;;;;;;22.55;8.13;;;;;;;6.55;91.36;102465.16;5054038;28;20040;-35
2022/03/28 07:18:56;;;;;;;17.57;7.00;;;;;;;6.65;91.80;102467.72;5054749;28;20082;-35
2022/03/28 07:21:22;;;;;;;20.67;8.13;;;;;;;6.67;91.65;102465.69;5052598;28;20017;-35
2022/03/28 07:23:48;;;;;;;18.27;7.40;;;;;;;6.77;91.54;102452.09;5053698;28;20116;-35
2022/03/28 07:26:14;;;;;;;;;;;;;;;6.95;91.20;102456.31;5054940;28;20045;-35
2022/03/28 07:28:39;;;;;;;15.60;6.95;;;;;;;6.99;91.24;102454.13;5053660;28;20320;-35
2022/03/28 07:31:08;;;;;;;19.63;7.43;;;;;;;7.23;91.63;102461.34;5054007;28;20449;-35
2022/03/28 07:33:41;;;;;;;18.38;8.05;;;;;;;7.27;90.67;102461.81;5053377;28;20285;-35
2022/03/28 07:36:06;;;;;;;25.17;8.70;;;;;;;7.30;91.20;102435.44;5053794;28;20428;-35
2022/03/28 07:38:32;;;;;;;21.40;7.65;;;;;;;7.46;90.08;102451.53;5053695;28;20082;-36
2022/03/28 07:40:58;;;;;;;17.52;8.10;;;;;;;7.52;90.59;102451.88;5052915;28;20110;-36
2022/03/28 07:43:23;;;;;;;18.52;8.10;;;;;;;7.59;89.75;102442.94;5053018;28;20021;-35
2022/03/28 07:45:50;;;;;;;20.05;8.20;;;;;;;7.62;89.41;102448.00;5053376;28;20035;-35
2022/03/28 07:48:16;;;;;;;19.55;8.68;;;;;;;7.70;89.45;102447.94;5053240;28;20025;-35
2022/03/28 07:50:41;;;;;;;19.15;8.30;;;;;;;7.67;88.60;102434.00;5053275;28;20040;-35
2022/03/28 07:53:07;;;;;;;19.10;8.82;;;;;;;7.68;88.72;102420.38;5053127;28;20037;-44
2022/03/28 07:55:33;;;;;;;19.63;9.55;;;;;;;7.79;88.65;102446.06;5053652;28;20107;-35
2022/03/28 07:58:03;;;;;;;21.08;9.40;;;;;;;7.80;88.27;102431.59;5052856;28;20029;-35
2022/03/28 08:00:29;;;;;;;20.08;10.15;;;;;;;7.84;88.57;102435.63;5053410;28;20025;-35
2022/03/28 08:02:55;;;;;;;19.70;9.32;;;;;;;8.00;89.18;102429.31;5053018;28;20043;-35
2022/03/28 08:05:20;;;;;;;;;;;;;;;8.19;88.21;102415.41;5053811;28;20044;-35
2022/03/28 08:07:46;;;;;;;17.25;9.02;;;;;;;8.30;87.26;102421.44;5053023;28;19924;-35
2022/03/28 08:10:13;;;;;;;17.97;9.77;;;;;;;8.35;87.56;102410.97;5052993;28;20033;-35
2022/03/28 08:12:38;;;;;;;18.48;9.32;;;;;;;8.42;87.25;102414.66;5052586;28;20029;-35
2022/03/28 08:15:07;;;;;;;20.58;9.70;;;;;;;8.36;86.72;102416.19;5053286;28;20449;-35
2022/03/28 08:17:35;;;;;;;17.83;9.73;;;;;;;8.55;86.11;102419.47;5053080;28;20045;-35
2022/03/28 08:20:01;;;;;;;15.77;9.25;;;;;;;8.62;85.76;102423.09;5053011;28;20453;-35
2022/03/28 08:22:26;;;;;;;19.73;9.93;;;;;;;8.73;86.97;102396.53;5052775;28;20035;-35
2022/03/28 08:24:51;;;;;;;20.83;10.10;;;;;;;8.92;85.74;102408.69;5053027;28;20267;-35
2022/03/28 08:27:17;;;;;;;17.93;9.47;;;;;;;9.03;85.21;102412.84;5052735;28;20024;-35
2022/03/28 08:29:42;;;;;;;18.35;9.38;;;;;;;9.16;84.68;102399.53;5053122;28;20402;-35
2022/03/28 08:32:09;;;;;;;19.73;11.83;;;;;;;9.03;84.08;102407.44;5052411;28;20056;-35
2022/03/28 08:34:34;;;;;;;21.65;11.10;;;;;;;9.00;84.84;102400.53;5053481;28;20047;-35
2022/03/28 08:36:59;;;;;;;20.40;10.63;;;;;;;9.17;84.52;102400.38;5053008;28;20506;-35
2022/03/28 08:39:25;;;;;;;21.53;10.00;;;;;;;9.36;84.33;102390.91;5052342;28;20381;-35
2022/03/28 08:41:50;;;;;;;23.63;12.63;;;;;;;9.41;83.66;102394.72;5053439;28;20090;-35
2022/03/28 08:44:18;;;;;;;21.53;11.53;;;;;;;9.52;83.59;102390.75;5052648;28;20028;-35
2022/03/28 08:46:45;;;;;;;19.77;10.77;;;;;;;9.58;82.55;102384.59;5052605;28;20045;-35
2022/03/28 08:49:11;;;;;;;20.05;10.00;;;;;;;9.66;81.92;102389.91;5052328;28;20365;-35
2022/03/28 08:51:36;;;;;;;20.45;10.82;;;;;;;9.83;82.45;102387.00;5051262;28;20083;-35
2022/03/28 08:54:03;;;;;;;20.00;11.00;;;;;;;10.07;82.25;102389.38;5052185;28;20021;-35
2022/03/28 08:56:28;;;;;;;;;;;;;;;10.30;82.56;102383.84;5053714;28;20029;-35
2022/03/28 08:58:53;;;;;;;18.92;10.80;;;;;;;10.36;80.41;102372.25;5052625;28;19920;-35
2022/03/28 09:01:20;;;;;;;18.10;10.90;;;;;;;10.56;79.63;102389.50;5052446;28;20033;-35
2022/03/28 09:03:47;;;;;;;22.08;11.85;;;;;;;10.39;79.44;102358.31;5052281;28;20056;-36
2022/03/28 09:06:39;;;;;;;20.27;11.13;;;;;;;10.70;80.26;102384.22;5053016;28;20465;-36
2022/03/28 09:09:13;;;;;;;23.60;12.70;;;;;;;10.49;78.94;102358.88;5052723;28;20036;-36
2022/03/28 09:11:40;;;;;;;21.67;12.60;;;;;;;10.81;78.95;102381.81;5052883;28;20055;-36
2022/03/28 09:14:06;;;;;;;21.05;12.25;;;;;;;10.97;78.65;102385.28;5052457;28;20120;-35
2022/03/28 09:16:34;;;;;;;21.33;12.85;;;;;;;10.99;77.40;102369.69;5052385;28;20489;-36
2022/03/28 09:19:07;;;;;;;15.77;10.40;;;;;;;11.19;77.87;102373.38;5052338;28;20029;-36
2022/03/28 09:21:33;;;;;;;19.80;13.10;;;;;;;11.37;77.59;102375.59;5052428;28;20063;-36
2022/03/28 09:23:59;;;;;;;23.00;13.52;;;;;;;11.45;76.42;102366.44;5052867;28;20056;-36
2022/03/28 09:26:26;;;;;;;23.90;13.60;;;;;;;11.37;76.75;102334.97;5052942;28;20384;-36
2022/03/28 09:28:58;;;;;;;23.65;15.20;;;;;;;11.59;74.44;102371.75;5052047;28;20068;-36
2022/03/28 09:31:32;;;;;;;21.17;13.20;;;;;;;11.79;75.12;102361.00;5052946;28;20523;-36
2022/03/28 09:34:02;;;;;;;25.23;13.10;;;;;;;11.84;74.81;102355.00;5052897;28;20479;-36
2022/03/28 09:36:34;;;;;;;30.45;14.50;;;;;;;11.93;74.51;102353.78;5052005;28;20029;-36
2022/03/28 09:39:00;;;;;;;20.50;13.05;;;;;;;12.17;74.29;102355.09;5052159;28;20021;-35
2022/03/28 09:41:28;;;;;;;27.35;13.52;;;;;;;12.13;73.78;102345.72;5052480;28;20032;-36
2022/03/28 09:43:54;;;;;;;23.83;13.23;;;;;;;12.23;73.39;102342.59;5051036;28;20037;-36
2022/03/28 09:46:30;;;;;;;;;;;;;;;12.42;73.23;102343.69;5056773;28;20032;-36
2022/03/28 09:48:59;;;;;;;25.17;15.23;;;;;;;12.28;71.42;102353.66;5055574;28;19912;-36
2022/03/28 09:51:30;;;;;;;23.33;14.35;;;;;;;12.41;72.30;102340.13;5056447;28;20041;-36
2022/03/28 09:53:57;;;;;;;21.73;13.88;;;;;;;12.57;71.74;102344.31;5055520;28;20063;-35
2022/03/28 09:56:24;;;;;;;21.98;12.55;;;;;;;12.75;71.82;102341.81;5055861;28;20052;-36
2022/03/28 09:58:56;;;;;;;22.38;14.68;;;;;;;12.62;71.93;102329.06;5055993;28;20355;-36
2022/03/28 10:01:35;;;;;;;23.77;13.48;;;;;;;12.69;71.78;102320.09;5055873;28;20029;-36
2022/03/28 10:04:07;;;;;;;24.65;14.35;;;;;;;12.91;70.75;102335.13;5055300;28;20413;-36
2022/03/28 10:06:34;;;;;;;21.48;13.30;;;;;;;12.87;70.45;102323.00;5056061;28;20049;-36
2022/03/28 10:09:00;;;;;;;21.92;12.80;;;;;;;12.98;69.61;102318.81;5055164;28;20029;-36
2022/03/28 10:11:26;;;;;;;21.30;13.65;;;;;;;13.12;69.52;102323.19;5055635;28;20083;-36
2022/03/28 10:13:52;;;;;;;27.35;14.27;;;;;;;13.22;69.74;102314.63;5055403;28;20025;-36
2022/03/28 10:16:18;;;;;;;;;;;;;;;13.45;70.67;102317.69;5055984;28;20036;-36
2022/03/28 10:18:49;;;;;;;21.10;13.95;;;;;;;13.55;68.45;102309.09;5054948;28;19908;-36
2022/03/28 10:21:19;;;;;;;22.67;14.80;;;;;;;13.59;67.43;102310.34;5055928;28;20079;-36
2022/03/28 10:24:00;;;;;;;23.92;16.38;;;;;;;13.45;65.52;102306.84;5055385;28;20120;-36
2022/03/28 10:26:34;;;;;;;20.30;14.50;;;;;;;13.69;67.04;102310.72;5055861;28;20354;-36
2022/03/28 10:29:01;;;;;;;24.05;15.25;;;;;;;13.70;65.36;102298.78;5054701;28;20499;-36
2022/03/28 10:31:26;;;;;;;21.77;14.07;;;;;;;13.85;64.91;102303.94;5055612;28;20104;-36
2022/03/28 10:33:54;;;;;;;22.23;14.60;;;;;;;13.93;65.92;102300.97;5054802;28;20112;-36
2022/03/28 10:36:28;;;;;;;19.58;13.88;;;;;;;13.88;64.69;102285.31;5055360;28;20029;-36
2022/03/28 10:38:57;;;;;;;20.10;14.38;;;;;;;14.08;63.96;102290.63;5054835;28;20021;-36
2022/03/28 10:41:26;;;;;;;21.92;13.90;;;;;;;14.24;63.97;102275.66;5055145;28;20017;-36
2022/03/28 10:44:01;;;;;;;19.50;13.27;;;;;;;14.31;63.14;102278.34;5054959;28;20040;-36
2022/03/28 10:46:34;;;;;;;19.13;13.93;;;;;;;14.40;62.96;102268.84;5054663;28;20203;-36
2022/03/28 10:49:00;;;;;;;19.75;13.15;;;;;;;14.51;62.04;102276.31;5054764;28;20033;-36
2022/03/28 10:51:31;;;;;;;19.38;12.52;;;;;;;14.67;61.73;102269.47;5055207;28;20037;-36
2022/03/28 10:54:05;;;;;;;18.17;13.23;;;;;;;14.74;61.23;102263.94;5054590;28;20036;-36
2022/03/28 10:56:36;;;;;;;19.05;12.38;;;;;;;14.77;60.10;102269.78;5054174;28;20057;-36
2022/03/28 10:59:11;;;;;;;16.85;12.15;;;;;;;14.87;60.29;102272.00;5054432;28;20098;-41
2022/03/28 11:01:37;;;;;;;15.73;11.82;;;;;;;15.02;60.39;102267.03;5054383;28;20094;-36
2022/03/28 11:04:05;;;;;;;16.83;12.23;;;;;;;15.05;58.95;102257.56;5054821;28;20028;-36
2022/03/28 11:07:01;;;;;;;18.73;12.15;;;;;;;15.15;59.67;102250.53;5054739;28;20076;-36
2022/03/28 11:09:41;;;;;;;17.88;11.60;;;;;;;15.27;59.06;102249.75;5054330;28;20484;-36
2022/03/28 11:12:29;;;;;;;19.80;11.65;;;;;;;15.28;59.20;102243.28;5054731;28;20037;-36
2022/03/28 11:14:55;;;;;;;17.70;11.75;;;;;;;15.27;58.74;102244.31;5054656;28;20025;-36
2022/03/28 11:17:23;;;;;;;;;;;;;;;15.54;60.66;102248.38;5055067;28;20090;-36
2022/03/28 11:20:09;;;;;;;16.98;11.23;;;;;;;15.56;58.37;102239.97;5054062;28;20283;-35
2022/03/28 11:22:41;;;;;;;15.30;12.07;;;;;;;15.48;57.35;102213.03;5054733;28;20111;-35
2022/03/28 11:25:31;;;;;;;14.63;12.00;;;;;;;15.66;56.42;102222.03;5054093;28;20049;-34
2022/03/28 11:28:10;;;;;;;16.90;11.77;;;;;;;15.65;56.38;102220.34;5054090;28;20105;-35